Time;durP1;ratioP1;P1;durP2;ratioP2;P2;SDS_P1;SDS_P2;PMS_P1;PMS_P2;Temp;Humidity;BMP_temperature;BMP_pressure;BME280_temperature;BME280_humidity;BME280_pressure;Samples;Min_cycle;Max_cycle;Signal;HPM_P1;HPM_P2
2021/10/30 00:00:32;;;;;;;3.50;3.03;;;9.30;99.90;;;;;;457346;259;28109;-81
2021/10/30 00:02:33;;;;;;;3.20;2.90;;;9.20;99.90;;;;;;457305;259;28057;-82
2021/10/30 00:04:34;;;;;;;3.10;2.70;;;9.10;99.90;;;;;;457315;259;27867;-82
2021/10/30 00:06:36;;;;;;;3.30;2.90;;;9.10;99.90;;;;;;457309;259;28078;-81
2021/10/30 00:08:37;;;;;;;4.37;2.97;;;9.00;99.90;;;;;;457306;256;27820;-81
2021/10/30 00:10:38;;;;;;;3.73;3.27;;;9.00;99.90;;;;;;457308;259;27946;-80
2021/10/30 00:12:39;;;;;;;3.30;2.90;;;9.00;99.90;;;;;;457323;259;27795;-81
2021/10/30 00:14:43;;;;;;;4.00;3.60;;;9.00;99.90;;;;;;457318;259;28110;-81
2021/10/30 00:16:42;;;;;;;3.60;3.00;;;9.10;99.90;;;;;;457167;259;28111;-80
2021/10/30 00:18:43;;;;;;;5.30;3.80;;;9.00;99.90;;;;;;457347;259;28200;-83
2021/10/30 00:20:44;;;;;;;5.00;3.37;;;9.00;99.90;;;;;;457275;256;27741;-80
2021/10/30 00:22:46;;;;;;;4.00;3.50;;;9.00;99.90;;;;;;457269;259;28399;-82
2021/10/30 00:24:47;;;;;;;3.63;2.90;;;9.00;99.90;;;;;;457287;259;28496;-81
2021/10/30 00:26:49;;;;;;;4.10;3.30;;;8.90;99.90;;;;;;457259;259;28614;-80
2021/10/30 00:28:49;;;;;;;3.67;2.87;;;8.80;99.90;;;;;;457262;259;28013;-82
2021/10/30 00:30:51;;;;;;;3.27;2.97;;;8.70;99.90;;;;;;457266;259;28467;-81
2021/10/30 00:32:52;;;;;;;4.03;3.27;;;8.70;99.90;;;;;;457345;255;27893;-81
2021/10/30 00:34:53;;;;;;;3.50;3.10;;;8.60;99.90;;;;;;457320;259;27725;-80
2021/10/30 00:36:55;;;;;;;5.97;4.07;;;8.70;99.90;;;;;;457198;259;27828;-79
2021/10/30 00:38:56;;;;;;;3.30;3.00;;;8.70;99.90;;;;;;457222;256;28124;-80
2021/10/30 00:40:57;;;;;;;5.40;3.83;;;8.70;99.90;;;;;;457185;259;28103;-81
2021/10/30 00:42:58;;;;;;;3.43;3.00;;;8.70;99.90;;;;;;457198;259;28139;-81
2021/10/30 00:44:59;;;;;;;3.60;3.13;;;8.80;99.90;;;;;;457236;259;28036;-81
2021/10/30 00:47:01;;;;;;;4.50;4.07;;;8.70;99.90;;;;;;457223;259;28185;-79
2021/10/30 00:49:02;;;;;;;4.00;3.60;;;8.70;99.90;;;;;;457256;259;28066;-81
2021/10/30 00:51:03;;;;;;;3.33;3.03;;;8.70;99.90;;;;;;457284;259;28496;-80
2021/10/30 00:53:04;;;;;;;4.40;3.30;;;8.70;99.90;;;;;;457294;256;28178;-81
2021/10/30 00:55:06;;;;;;;3.43;3.13;;;8.60;99.90;;;;;;457279;259;27777;-79
2021/10/30 00:57:07;;;;;;;3.70;3.10;;;8.60;99.90;;;;;;457275;259;28098;-79
2021/10/30 00:59:09;;;;;;;2.80;2.60;;;8.60;99.90;;;;;;457220;259;28068;-81
2021/10/30 01:01:09;;;;;;;3.00;2.80;;;8.50;99.90;;;;;;457207;259;27865;-80
2021/10/30 01:03:11;;;;;;;3.20;2.90;;;8.40;99.90;;;;;;457209;256;28659;-78
2021/10/30 01:05:12;;;;;;;2.63;2.40;;;8.40;99.90;;;;;;457190;259;28518;-82
2021/10/30 01:07:13;;;;;;;2.90;2.70;;;8.30;99.90;;;;;;457212;259;28267;-79
2021/10/30 01:09:14;;;;;;;3.70;3.13;;;8.30;99.90;;;;;;457095;259;28202;-80
2021/10/30 01:11:16;;;;;;;2.90;2.70;;;8.20;99.90;;;;;;457117;256;28160;-81
2021/10/30 01:13:17;;;;;;;3.20;2.90;;;8.20;99.90;;;;;;457094;259;28242;-79
2021/10/30 01:15:18;;;;;;;2.80;2.60;;;8.20;99.90;;;;;;457110;259;28165;-80
2021/10/30 01:17:20;;;;;;;3.20;2.90;;;8.10;99.90;;;;;;457130;259;28235;-81
2021/10/30 01:19:21;;;;;;;3.13;2.83;;;8.10;99.90;;;;;;457200;259;28057;-82
2021/10/30 01:21:22;;;;;;;2.93;2.73;;;8.10;99.90;;;;;;457157;259;29011;-80
2021/10/30 01:23:23;;;;;;;3.30;2.70;;;8.10;99.90;;;;;;457231;259;28204;-78
2021/10/30 01:25:24;;;;;;;2.80;2.57;;;8.00;99.90;;;;;;457211;259;27985;-81
2021/10/30 01:27:26;;;;;;;3.00;2.70;;;8.10;99.90;;;;;;457129;259;28127;-80
2021/10/30 01:29:29;;;;;;;3.53;3.20;;;8.10;99.90;;;;;;457157;259;28128;-80
2021/10/30 01:31:28;;;;;;;4.00;3.00;;;8.00;99.90;;;;;;457047;259;28234;-80
2021/10/30 01:33:29;;;;;;;2.87;2.30;;;8.00;99.90;;;;;;457177;259;28231;-80
2021/10/30 01:35:31;;;;;;;2.80;2.60;;;8.00;99.90;;;;;;457159;259;28054;-81
2021/10/30 01:37:32;;;;;;;3.30;3.00;;;8.00;99.90;;;;;;457131;259;27934;-80
2021/10/30 01:39:34;;;;;;;6.77;3.30;;;7.90;99.90;;;;;;457104;259;28554;-81
2021/10/30 01:41:34;;;;;;;3.53;3.17;;;8.00;99.90;;;;;;457125;259;28615;-82
2021/10/30 01:43:36;;;;;;;3.60;3.30;;;8.10;99.90;;;;;;457203;259;28391;-79
2021/10/30 01:45:37;;;;;;;2.90;2.67;;;8.10;99.90;;;;;;457196;259;28358;-82
2021/10/30 01:47:38;;;;;;;3.30;3.00;;;8.10;99.90;;;;;;457145;259;28510;-80
2021/10/30 01:49:39;;;;;;;3.37;3.07;;;8.20;99.90;;;;;;457113;259;28080;-82
2021/10/30 01:51:41;;;;;;;3.80;3.50;;;8.30;99.90;;;;;;457144;259;28076;-81
2021/10/30 01:53:42;;;;;;;3.40;3.10;;;8.40;99.90;;;;;;457138;259;28992;-79
2021/10/30 01:55:43;;;;;;;4.23;3.00;;;8.30;99.90;;;;;;457187;259;27811;-81
2021/10/30 01:57:44;;;;;;;4.23;3.17;;;8.30;99.90;;;;;;457178;259;28095;-82
2021/10/30 01:59:46;;;;;;;3.17;2.90;;;8.30;99.90;;;;;;457131;259;28058;-80
2021/10/30 02:01:47;;;;;;;2.80;2.60;;;8.30;99.90;;;;;;457182;259;28174;-82
2021/10/30 02:03:48;;;;;;;3.50;3.17;;;8.20;99.90;;;;;;457118;259;28131;-80
2021/10/30 02:05:49;;;;;;;2.90;2.60;;;8.20;99.90;;;;;;457122;256;28043;-82
2021/10/30 02:07:51;;;;;;;3.70;3.20;;;8.10;99.90;;;;;;457195;259;28150;-81
2021/10/30 02:09:52;;;;;;;3.40;3.10;;;8.20;99.90;;;;;;457101;256;28153;-81
2021/10/30 02:11:53;;;;;;;3.43;2.93;;;8.20;99.90;;;;;;457199;259;27685;-81
2021/10/30 02:13:54;;;;;;;3.07;2.83;;;8.20;99.90;;;;;;457074;259;28550;-81
2021/10/30 02:15:56;;;;;;;2.67;2.47;;;8.20;99.90;;;;;;457059;259;28157;-82
2021/10/30 02:17:57;;;;;;;3.00;2.80;;;8.20;99.90;;;;;;457061;259;28293;-82
2021/10/30 02:19:58;;;;;;;7.03;2.77;;;8.10;99.90;;;;;;457048;259;28650;-83
2021/10/30 02:21:59;;;;;;;3.10;2.80;;;8.10;99.90;;;;;;456936;259;28521;-83
2021/10/30 02:24:01;;;;;;;2.80;2.60;;;8.10;99.90;;;;;;457102;259;28634;-81
2021/10/30 02:26:03;;;;;;;6.80;2.80;;;8.10;99.90;;;;;;457190;259;28063;-82
2021/10/30 02:28:03;;;;;;;2.73;2.53;;;8.10;99.90;;;;;;457314;259;27993;-81
2021/10/30 02:30:04;;;;;;;3.33;3.07;;;8.00;99.90;;;;;;457274;259;27942;-79
2021/10/30 02:32:06;;;;;;;3.30;2.83;;;8.00;99.90;;;;;;457135;259;28090;-82
2021/10/30 02:34:07;;;;;;;2.67;2.47;;;8.00;99.90;;;;;;457102;259;27930;-82
2021/10/30 02:36:08;;;;;;;2.73;2.53;;;8.00;99.90;;;;;;457105;256;28066;-82
2021/10/30 02:38:09;;;;;;;3.28;2.60;;;7.90;99.90;;;;;;457096;256;27874;-82
2021/10/30 02:40:11;;;;;;;2.67;2.50;;;8.00;99.90;;;;;;457095;259;27983;-79
2021/10/30 02:42:12;;;;;;;3.07;2.87;;;8.00;99.90;;;;;;457104;259;28189;-80
2021/10/30 02:44:13;;;;;;;3.27;3.07;;;7.90;99.90;;;;;;457022;259;27840;-82
2021/10/30 02:46:14;;;;;;;2.70;2.50;;;7.80;99.90;;;;;;457033;259;28188;-82
2021/10/30 02:48:16;;;;;;;2.67;2.47;;;7.80;99.90;;;;;;456996;259;28633;-82
2021/10/30 02:50:17;;;;;;;2.93;2.70;;;7.80;99.90;;;;;;457002;259;28689;-80
2021/10/30 02:52:18;;;;;;;2.83;2.63;;;7.80;99.90;;;;;;457058;259;28415;-83
2021/10/30 02:54:19;;;;;;;2.93;2.50;;;7.70;99.90;;;;;;457039;259;28585;-81
2021/10/30 02:56:21;;;;;;;3.10;2.70;;;7.70;99.90;;;;;;457026;259;28410;-82
2021/10/30 02:58:22;;;;;;;3.20;2.90;;;7.70;99.90;;;;;;457036;259;28611;-82
2021/10/30 03:00:23;;;;;;;2.73;2.53;;;7.70;99.90;;;;;;457060;259;27968;-79
2021/10/30 03:02:24;;;;;;;2.83;2.63;;;7.60;99.90;;;;;;457045;259;27602;-82
2021/10/30 03:04:26;;;;;;;2.83;2.63;;;7.70;99.90;;;;;;457059;259;28173;-81
2021/10/30 03:06:27;;;;;;;2.77;2.57;;;7.70;99.90;;;;;;457028;259;27939;-82
2021/10/30 03:08:28;;;;;;;2.87;2.67;;;7.70;99.90;;;;;;457130;256;27964;-82
2021/10/30 03:10:29;;;;;;;3.43;2.53;;;7.70;99.90;;;;;;457080;259;28105;-80
2021/10/30 03:12:31;;;;;;;2.30;2.13;;;7.70;99.90;;;;;;457052;256;28136;-82
2021/10/30 03:14:32;;;;;;;2.90;2.60;;;7.70;99.90;;;;;;457059;259;28111;-82
2021/10/30 03:16:33;;;;;;;2.77;2.57;;;7.70;99.90;;;;;;457071;259;28081;-82
2021/10/30 03:18:34;;;;;;;2.53;2.33;;;7.80;99.90;;;;;;457068;256;28682;-83
2021/10/30 03:20:36;;;;;;;2.90;2.70;;;7.80;99.90;;;;;;457056;259;28211;-80
2021/10/30 03:22:37;;;;;;;2.63;2.43;;;7.80;99.90;;;;;;457034;259;28056;-82
2021/10/30 03:24:39;;;;;;;2.77;2.57;;;7.80;99.90;;;;;;457010;259;27795;-81
2021/10/30 03:26:39;;;;;;;2.27;2.07;;;7.70;99.90;;;;;;456969;256;28559;-83
2021/10/30 03:28:41;;;;;;;2.30;2.20;;;7.70;99.90;;;;;;457032;259;28526;-81
2021/10/30 03:30:42;;;;;;;2.70;2.50;;;7.80;99.90;;;;;;457015;259;28480;-81
2021/10/30 03:32:43;;;;;;;2.27;2.17;;;7.90;99.90;;;;;;456966;259;28504;-82
2021/10/30 03:34:45;;;;;;;2.73;2.50;;;7.80;99.90;;;;;;456990;259;28597;-81
2021/10/30 03:36:46;;;;;;;2.70;2.50;;;7.60;99.90;;;;;;457017;256;28282;-79
2021/10/30 03:38:47;;;;;;;2.70;2.50;;;7.60;99.90;;;;;;457000;259;28143;-81
2021/10/30 03:40:48;;;;;;;2.80;2.40;;;7.50;99.90;;;;;;456952;259;28037;-81
2021/10/30 03:42:49;;;;;;;3.93;2.83;;;7.50;99.90;;;;;;456949;259;28036;-81
2021/10/30 03:44:51;;;;;;;2.63;2.43;;;7.50;99.90;;;;;;456969;259;28695;-82
2021/10/30 03:46:52;;;;;;;2.70;2.50;;;7.50;99.90;;;;;;456981;256;28186;-79
2021/10/30 03:48:53;;;;;;;2.77;2.57;;;7.60;99.90;;;;;;456975;259;28043;-81
2021/10/30 03:50:54;;;;;;;2.80;2.57;;;7.60;99.90;;;;;;456964;256;28148;-82
2021/10/30 03:52:56;;;;;;;2.43;2.23;;;7.70;99.90;;;;;;456954;259;28214;-82
2021/10/30 03:54:57;;;;;;;2.73;2.53;;;7.70;99.90;;;;;;456957;259;28103;-81
2021/10/30 03:56:58;;;;;;;2.60;2.40;;;7.70;99.90;;;;;;456977;259;28218;-80
2021/10/30 03:58:59;;;;;;;3.10;2.80;;;7.70;99.90;;;;;;456973;259;28509;-82
2021/10/30 04:01:01;;;;;;;2.83;2.63;;;7.70;99.90;;;;;;456955;259;28102;-80
2021/10/30 04:03:03;;;;;;;2.67;2.43;;;7.70;99.90;;;;;;456980;259;28784;-82
2021/10/30 04:05:03;;;;;;;2.60;2.40;;;7.70;99.90;;;;;;456940;259;28772;-81
2021/10/30 04:07:04;;;;;;;3.53;2.80;;;7.70;99.90;;;;;;457024;259;28793;-78
2021/10/30 04:09:06;;;;;;;2.53;2.33;;;7.70;99.90;;;;;;457003;259;28140;-82
2021/10/30 04:11:07;;;;;;;2.93;2.63;;;7.50;99.90;;;;;;456922;259;28719;-82
2021/10/30 04:13:08;;;;;;;3.30;3.00;;;7.30;99.90;;;;;;457033;259;28087;-81
2021/10/30 04:15:10;;;;;;;5.53;3.13;;;7.30;99.90;;;;;;456971;259;27961;-82
2021/10/30 04:17:11;;;;;;;4.80;4.00;;;7.30;99.90;;;;;;456965;259;28135;-80
2021/10/30 04:19:13;;;;;;;6.00;3.60;;;7.30;99.90;;;;;;457017;259;27704;-82
2021/10/30 04:21:13;;;;;;;5.70;4.40;;;7.40;99.90;;;;;;456943;259;28188;-81
2021/10/30 04:23:14;;;;;;;7.63;4.57;;;7.50;99.90;;;;;;456963;259;28132;-83
2021/10/30 04:25:16;;;;;;;8.23;4.50;;;7.70;99.90;;;;;;456948;259;27984;-82
2021/10/30 04:27:17;;;;;;;6.00;4.63;;;7.70;99.90;;;;;;456975;259;28743;-81
2021/10/30 04:29:20;;;;;;;6.03;4.53;;;;;;;;;;456957;259;28387;-84
2021/10/30 04:31:25;;;;;;;6.10;4.30;;;7.80;99.90;;;;;;457158;258;26788;-80
2021/10/30 04:33:22;;;;;;;5.30;3.80;;;8.20;99.90;;;;;;456861;260;28594;-83
2021/10/30 04:35:24;;;;;;;5.43;3.83;;;8.10;99.90;;;;;;457050;256;28772;-82
2021/10/30 04:37:25;;;;;;;4.53;3.50;;;8.10;99.90;;;;;;457086;259;29399;-82
2021/10/30 04:39:26;;;;;;;4.10;3.53;;;8.10;99.90;;;;;;457086;259;28536;-80
2021/10/30 04:41:27;;;;;;;8.13;4.00;;;8.10;99.90;;;;;;457044;259;28584;-79
2021/10/30 04:43:29;;;;;;;3.40;3.10;;;8.10;99.90;;;;;;457060;259;28101;-81
2021/10/30 04:45:30;;;;;;;5.27;3.30;;;8.30;99.90;;;;;;457078;259;27888;-80
2021/10/30 04:47:31;;;;;;;4.13;3.50;;;8.60;99.90;;;;;;457093;259;28099;-81
2021/10/30 04:49:32;;;;;;;3.67;3.33;;;8.70;99.90;;;;;;457068;258;28007;-82
2021/10/30 04:51:34;;;;;;;4.50;3.60;;;8.30;99.90;;;;;;457101;259;28059;-80
2021/10/30 04:53:35;;;;;;;3.77;3.40;;;8.10;99.90;;;;;;457083;256;28074;-81
2021/10/30 04:55:36;;;;;;;3.43;3.13;;;8.00;99.90;;;;;;457054;258;28124;-80
2021/10/30 04:57:37;;;;;;;3.53;3.23;;;8.00;99.90;;;;;;457107;256;28200;-81
2021/10/30 04:59:39;;;;;;;4.30;3.63;;;8.00;99.90;;;;;;457125;260;28077;-82
2021/10/30 05:01:40;;;;;;;4.37;3.97;;;8.10;99.90;;;;;;457149;257;28098;-80
2021/10/30 05:03:41;;;;;;;5.63;3.67;;;8.10;99.90;;;;;;457062;259;27684;-82
2021/10/30 05:05:42;;;;;;;5.07;3.63;;;8.30;99.90;;;;;;457078;259;28095;-81
2021/10/30 05:07:43;;;;;;;3.80;3.50;;;8.40;99.90;;;;;;457123;259;28285;-78
2021/10/30 05:09:45;;;;;;;3.47;3.07;;;8.40;99.90;;;;;;457094;259;28492;-80
2021/10/30 05:11:46;;;;;;;3.87;3.30;;;8.30;99.90;;;;;;457085;259;28417;-80
2021/10/30 05:13:47;;;;;;;3.80;3.40;;;8.20;99.90;;;;;;457133;259;28602;-81
2021/10/30 05:15:48;;;;;;;3.87;3.50;;;8.10;99.90;;;;;;457155;259;28267;-81
2021/10/30 05:17:50;;;;;;;3.20;3.00;;;7.80;99.90;;;;;;457159;259;28610;-79
2021/10/30 05:19:51;;;;;;;3.30;3.10;;;7.60;99.90;;;;;;457092;258;27809;-81
2021/10/30 05:21:52;;;;;;;5.03;3.83;;;7.50;99.90;;;;;;457090;259;27965;-81
2021/10/30 05:23:53;;;;;;;4.00;3.53;;;7.50;99.90;;;;;;457081;259;28144;-82
2021/10/30 05:25:55;;;;;;;4.00;3.60;;;7.60;99.90;;;;;;457069;259;28269;-81
2021/10/30 05:27:56;;;;;;;3.40;3.10;;;7.70;99.90;;;;;;457119;259;27812;-79
2021/10/30 05:29:57;;;;;;;4.80;3.43;;;7.70;99.90;;;;;;457118;259;28258;-81
2021/10/30 05:31:58;;;;;;;3.83;3.50;;;7.70;99.90;;;;;;457139;259;27982;-81
2021/10/30 05:34:00;;;;;;;4.47;4.07;;;7.80;99.90;;;;;;457112;259;28193;-82
2021/10/30 05:36:04;;;;;;;5.17;3.90;;;7.80;99.90;;;;;;457132;259;28103;-80
2021/10/30 05:38:02;;;;;;;4.47;4.07;;;7.80;99.90;;;;;;457010;260;27737;-80
2021/10/30 05:40:07;;;;;;;4.63;4.17;;;7.80;99.90;;;;;;457162;259;27770;-81
2021/10/30 05:42:05;;;;;;;4.43;4.03;;;7.80;99.90;;;;;;456920;259;28073;-81
2021/10/30 05:44:06;;;;;;;4.50;4.10;;;7.90;99.90;;;;;;457067;259;28312;-81
2021/10/30 05:46:07;;;;;;;4.30;3.93;;;7.90;99.90;;;;;;457112;259;28102;-81
2021/10/30 05:48:10;;;;;;;5.33;4.60;;;8.00;99.90;;;;;;457094;259;28536;-79
2021/10/30 05:50:10;;;;;;;4.50;4.10;;;8.00;99.90;;;;;;457013;259;28168;-81
2021/10/30 05:52:11;;;;;;;4.30;4.00;;;8.00;99.90;;;;;;457045;259;28305;-81
2021/10/30 05:54:12;;;;;;;5.60;4.33;;;8.00;99.90;;;;;;457079;259;28673;-82
2021/10/30 05:56:13;;;;;;;4.73;4.20;;;8.10;99.90;;;;;;457115;259;28527;-81
2021/10/30 05:58:15;;;;;;;4.43;4.03;;;8.10;99.90;;;;;;457110;259;28208;-81
2021/10/30 06:00:16;;;;;;;5.27;4.57;;;8.20;99.90;;;;;;457081;256;28199;-82
2021/10/30 06:02:17;;;;;;;4.63;4.23;;;8.20;99.90;;;;;;457056;259;28119;-81
2021/10/30 06:04:18;;;;;;;4.70;4.30;;;8.30;99.90;;;;;;457064;259;28096;-80
2021/10/30 06:06:20;;;;;;;4.63;4.03;;;8.40;99.90;;;;;;457056;259;28073;-83
2021/10/30 06:08:21;;;;;;;4.07;3.77;;;8.40;99.90;;;;;;457064;256;27619;-80
2021/10/30 06:10:22;;;;;;;4.20;3.80;;;8.50;99.90;;;;;;457088;256;27700;-81
2021/10/30 06:12:23;;;;;;;4.73;4.33;;;8.60;99.90;;;;;;457120;256;28100;-81
2021/10/30 06:14:25;;;;;;;4.10;3.80;;;8.50;99.90;;;;;;457141;256;28326;-80
2021/10/30 06:16:26;;;;;;;5.50;4.00;;;8.50;99.90;;;;;;457151;259;28070;-81
2021/10/30 06:18:27;;;;;;;4.40;4.00;;;8.50;99.90;;;;;;457147;259;28226;-81
2021/10/30 06:20:28;;;;;;;4.70;4.30;;;8.50;99.90;;;;;;457145;256;27940;-83
2021/10/30 06:22:30;;;;;;;4.37;4.03;;;8.50;99.90;;;;;;457134;259;28107;-81
2021/10/30 06:24:31;;;;;;;4.53;4.13;;;8.50;99.90;;;;;;457158;259;28192;-79
2021/10/30 06:26:33;;;;;;;5.03;3.90;;;8.30;99.90;;;;;;457400;256;27941;-84
2021/10/30 06:28:34;;;;;;;4.07;3.77;;;8.20;99.90;;;;;;457723;259;27752;-80
2021/10/30 06:30:35;;;;;;;4.80;4.40;;;8.10;99.90;;;;;;457839;259;28176;-82
2021/10/30 06:32:36;;;;;;;5.50;4.27;;;8.00;99.90;;;;;;457748;256;27710;-82
2021/10/30 06:34:37;;;;;;;4.67;4.27;;;7.90;99.90;;;;;;457848;256;27988;-79
2021/10/30 06:36:39;;;;;;;5.27;4.53;;;7.90;99.90;;;;;;457809;259;27689;-82
2021/10/30 06:38:40;;;;;;;4.80;4.03;;;7.90;99.90;;;;;;457840;259;28083;-81
2021/10/30 06:40:41;;;;;;;5.27;4.70;;;7.80;99.90;;;;;;457606;259;27789;-83
2021/10/30 06:42:42;;;;;;;4.80;4.40;;;7.80;99.90;;;;;;457407;259;28160;-80
2021/10/30 06:44:45;;;;;;;4.87;4.37;;;7.80;99.90;;;;;;457415;257;28106;-80
2021/10/30 06:46:45;;;;;;;5.00;4.53;;;7.70;99.90;;;;;;457310;259;28063;-82
2021/10/30 06:48:49;;;;;;;5.23;4.83;;;7.60;99.90;;;;;;457337;259;28394;-80
2021/10/30 06:50:47;;;;;;;4.47;4.07;;;7.60;99.90;;;;;;457027;260;27953;-82
2021/10/30 06:52:49;;;;;;;4.97;4.47;;;7.70;99.90;;;;;;457252;259;28134;-82
2021/10/30 06:54:50;;;;;;;4.77;4.33;;;7.70;99.90;;;;;;457288;259;28265;-81
2021/10/30 06:56:51;;;;;;;4.93;4.53;;;7.60;99.90;;;;;;457579;259;28009;-83
2021/10/30 06:58:52;;;;;;;5.43;4.93;;;7.50;99.90;;;;;;457817;259;28053;-81
2021/10/30 07:00:53;;;;;;;6.67;6.07;;;7.50;99.90;;;;;;457832;259;28729;-83
2021/10/30 07:02:55;;;;;;;11.90;10.80;;;7.40;99.90;;;;;;457856;259;27823;-82
2021/10/30 07:04:56;;;;;;;15.20;13.93;;;7.40;99.90;;;;;;457818;259;28097;-80
2021/10/30 07:06:57;;;;;;;21.17;19.37;;;7.40;99.90;;;;;;457649;259;28320;-81
2021/10/30 07:08:59;;;;;;;21.30;19.40;;;7.30;99.90;;;;;;457353;259;28173;-82
2021/10/30 07:11:00;;;;;;;23.70;21.50;;;7.40;99.90;;;;;;457333;259;28468;-79
2021/10/30 07:13:01;;;;;;;29.17;26.57;;;7.40;99.90;;;;;;457339;259;27921;-82
2021/10/30 07:15:02;;;;;;;34.10;31.00;;;7.40;99.90;;;;;;457282;259;28238;-81
2021/10/30 07:17:03;;;;;;;33.27;30.10;;;7.40;99.90;;;;;;457246;259;29061;-82
2021/10/30 07:19:05;;;;;;;33.07;30.07;;;7.50;99.90;;;;;;457254;259;29150;-81
2021/10/30 07:21:06;;;;;;;33.10;30.07;;;7.50;99.90;;;;;;457111;259;28003;-79
2021/10/30 07:23:07;;;;;;;30.00;27.30;;;7.40;99.90;;;;;;457234;259;27746;-82
2021/10/30 07:25:09;;;;;;;27.57;25.17;;;7.40;99.90;;;;;;457210;259;27708;-80
2021/10/30 07:27:10;;;;;;;25.10;23.00;;;7.50;99.90;;;;;;457253;259;28161;-82
2021/10/30 07:29:11;;;;;;;24.23;22.10;;;7.50;99.90;;;;;;457242;259;28238;-82
2021/10/30 07:31:12;;;;;;;24.73;22.63;;;7.50;99.90;;;;;;457266;259;28168;-80
2021/10/30 07:33:14;;;;;;;22.37;20.47;;;7.50;99.90;;;;;;457215;259;28193;-81
2021/10/30 07:35:15;;;;;;;22.83;20.70;;;7.50;99.90;;;;;;457235;259;28580;-81
2021/10/30 07:37:16;;;;;;;21.43;19.53;;;7.50;99.90;;;;;;457325;259;30548;-82
2021/10/30 07:39:17;;;;;;;19.07;17.47;;;7.60;99.90;;;;;;457227;259;28310;-81
2021/10/30 07:41:19;;;;;;;16.80;15.27;;;7.50;99.90;;;;;;457273;259;27713;-80
2021/10/30 07:43:20;;;;;;;15.23;14.00;;;7.60;99.90;;;;;;457231;259;28052;-82
2021/10/30 07:45:21;;;;;;;13.60;12.40;;;7.60;99.90;;;;;;457226;256;27878;-80
2021/10/30 07:47:22;;;;;;;12.43;11.43;;;7.60;99.90;;;;;;457222;259;28086;-79
2021/10/30 07:49:24;;;;;;;12.00;11.00;;;7.60;99.90;;;;;;457263;256;27931;-81
2021/10/30 07:51:25;;;;;;;10.97;10.07;;;7.60;99.90;;;;;;457252;259;27716;-79
2021/10/30 07:53:26;;;;;;;9.90;9.00;;;7.50;99.90;;;;;;457213;259;28627;-83
2021/10/30 07:55:27;;;;;;;9.07;8.27;;;7.50;99.90;;;;;;457189;259;28222;-80
2021/10/30 07:57:29;;;;;;;8.03;7.33;;;7.50;99.90;;;;;;457235;259;28179;-79
2021/10/30 07:59:33;;;;;;;7.80;7.10;;;7.40;99.90;;;;;;457234;259;28531;-82
2021/10/30 08:01:31;;;;;;;7.43;6.73;;;7.50;99.90;;;;;;457136;258;28539;-82
2021/10/30 08:03:32;;;;;;;6.50;5.90;;;7.70;99.90;;;;;;457238;259;28187;-81
2021/10/30 08:05:34;;;;;;;6.60;6.00;;;7.80;99.90;;;;;;457207;259;29010;-81
2021/10/30 08:07:36;;;;;;;6.27;5.67;;;7.90;99.90;;;;;;457280;259;28067;-80
2021/10/30 08:09:36;;;;;;;6.03;5.43;;;7.90;99.90;;;;;;457273;259;28084;-81
2021/10/30 08:11:37;;;;;;;6.17;5.57;;;8.00;99.90;;;;;;457291;259;28102;-81
2021/10/30 08:13:39;;;;;;;5.87;5.20;;;8.00;99.90;;;;;;457255;259;28034;-82
2021/10/30 08:15:40;;;;;;;5.20;4.70;;;7.90;99.90;;;;;;457271;259;27940;-81
2021/10/30 08:17:41;;;;;;;7.13;4.90;;;7.90;99.90;;;;;;457320;259;28216;-79
2021/10/30 08:19:42;;;;;;;6.27;5.70;;;8.00;99.90;;;;;;457255;259;28207;-81
2021/10/30 08:21:44;;;;;;;8.73;5.00;;;8.00;99.90;;;;;;457289;259;28143;-80
2021/10/30 08:23:45;;;;;;;5.77;4.80;;;8.00;99.90;;;;;;457288;256;27703;-81
2021/10/30 08:25:46;;;;;;;4.43;4.03;;;8.00;99.90;;;;;;457243;259;27685;-81
2021/10/30 08:27:47;;;;;;;5.07;4.57;;;8.00;99.90;;;;;;457264;259;28044;-80
2021/10/30 08:29:49;;;;;;;5.50;4.10;;;8.00;99.90;;;;;;457259;259;28511;-81
2021/10/30 08:31:50;;;;;;;5.47;4.80;;;8.00;99.90;;;;;;457192;259;28817;-80
2021/10/30 08:33:56;;;;;;;5.93;4.90;;;8.00;99.90;;;;;;457218;256;29472;-82
2021/10/30 08:35:55;;;;;;;7.40;6.13;;;7.90;99.90;;;;;;456943;260;28154;-78
2021/10/30 08:37:57;;;;;;;5.90;5.40;;;7.80;99.90;;;;;;457250;259;28223;-81
2021/10/30 08:39:58;;;;;;;5.70;5.10;;;7.80;99.90;;;;;;457272;259;28735;-80
2021/10/30 08:41:59;;;;;;;7.13;6.10;;;7.80;99.90;;;;;;457270;259;28175;-82
2021/10/30 08:44:00;;;;;;;5.90;5.40;;;7.80;99.90;;;;;;457208;256;27971;-82
2021/10/30 08:46:02;;;;;;;7.43;5.80;;;7.80;99.90;;;;;;457276;259;28096;-78
2021/10/30 08:48:03;;;;;;;5.47;4.97;;;7.80;99.90;;;;;;457222;259;28107;-82
2021/10/30 08:50:04;;;;;;;6.23;5.50;;;7.70;99.90;;;;;;457197;259;28128;-80
2021/10/30 08:52:05;;;;;;;6.30;5.43;;;7.80;99.90;;;;;;457188;259;28066;-82
2021/10/30 08:54:07;;;;;;;5.97;5.13;;;7.70;99.90;;;;;;457233;259;27835;-80
2021/10/30 08:56:08;;;;;;;5.50;4.80;;;7.70;99.90;;;;;;457184;259;28116;-79
2021/10/30 08:58:09;;;;;;;8.00;5.27;;;7.80;99.90;;;;;;457203;256;27789;-81
2021/10/30 09:00:10;;;;;;;5.13;4.47;;;7.70;99.90;;;;;;457095;259;28105;-81
2021/10/30 09:02:12;;;;;;;5.03;4.53;;;7.80;99.90;;;;;;457247;259;27997;-82
2021/10/30 09:04:13;;;;;;;5.10;4.60;;;7.80;99.90;;;;;;457193;259;28184;-81
2021/10/30 09:06:15;;;;;;;5.60;5.10;;;7.80;99.90;;;;;;457219;259;28192;-80
2021/10/30 09:08:15;;;;;;;5.97;5.37;;;7.80;99.90;;;;;;457110;256;28087;-80
2021/10/30 09:10:17;;;;;;;5.23;4.73;;;7.70;99.90;;;;;;457138;259;28087;-79
2021/10/30 09:12:18;;;;;;;6.33;5.63;;;7.70;99.90;;;;;;457140;259;28642;-81
2021/10/30 09:14:19;;;;;;;6.83;6.13;;;7.80;99.90;;;;;;457033;259;28518;-80
2021/10/30 09:16:20;;;;;;;6.20;4.83;;;7.70;99.90;;;;;;456997;259;28453;-79
2021/10/30 09:18:22;;;;;;;6.00;5.40;;;7.80;99.90;;;;;;456940;259;28382;-80
2021/10/30 09:20:23;;;;;;;6.07;5.47;;;7.90;99.90;;;;;;456929;259;28681;-80
2021/10/30 09:22:24;;;;;;;5.30;4.80;;;7.90;99.90;;;;;;456927;259;28061;-79
2021/10/30 09:24:25;;;;;;;6.63;5.40;;;7.90;99.90;;;;;;456950;259;27567;-81
2021/10/30 09:26:27;;;;;;;6.03;5.43;;;8.00;99.90;;;;;;456952;259;27979;-79
2021/10/30 09:28:28;;;;;;;5.50;5.00;;;7.90;99.90;;;;;;456943;259;27827;-80
2021/10/30 09:30:31;;;;;;;5.70;5.20;;;;;;;;;;456902;259;28304;-81
2021/10/30 09:32:33;;;;;;;5.90;5.17;;;8.00;99.90;;;;;;456929;258;27446;-78
2021/10/30 09:34:34;;;;;;;5.37;4.83;;;8.10;99.90;;;;;;456944;259;28646;-81
2021/10/30 09:36:35;;;;;;;5.40;4.90;;;8.20;99.90;;;;;;456993;259;28641;-80
2021/10/30 09:38:36;;;;;;;6.03;5.20;;;8.30;99.90;;;;;;457010;259;28149;-79
2021/10/30 09:40:38;;;;;;;7.50;4.47;;;8.30;99.90;;;;;;456978;259;28186;-80
2021/10/30 09:42:39;;;;;;;4.80;4.37;;;8.40;99.90;;;;;;456990;259;28195;-81
2021/10/30 09:44:40;;;;;;;5.57;4.53;;;8.50;99.90;;;;;;457099;259;27996;-81
2021/10/30 09:46:41;;;;;;;5.77;5.27;;;8.70;99.90;;;;;;456991;259;28305;-82
2021/10/30 09:48:43;;;;;;;7.40;6.57;;;8.80;99.90;;;;;;457040;259;28505;-79
2021/10/30 09:50:44;;;;;;;7.60;6.53;;;8.90;99.90;;;;;;457040;259;28070;-81
2021/10/30 09:52:45;;;;;;;9.60;6.80;;;8.90;99.90;;;;;;457107;259;28171;-82
2021/10/30 09:54:46;;;;;;;12.23;11.03;;;8.90;99.90;;;;;;457065;259;27946;-81
2021/10/30 09:56:48;;;;;;;18.90;17.10;;;8.90;99.90;;;;;;457072;259;28548;-80
2021/10/30 09:58:49;;;;;;;29.40;26.60;;;8.80;99.90;;;;;;457015;259;28483;-81
2021/10/30 10:00:50;;;;;;;32.83;29.77;;;8.80;99.90;;;;;;457003;259;28176;-82
2021/10/30 10:02:51;;;;;;;33.50;30.40;;;8.80;99.90;;;;;;456967;256;28572;-80
2021/10/30 10:04:53;;;;;;;32.83;29.93;;;8.80;99.90;;;;;;457049;259;27818;-81
2021/10/30 10:06:54;;;;;;;30.63;27.63;;;8.80;99.90;;;;;;457051;259;28035;-82
2021/10/30 10:08:56;;;;;;;28.47;25.90;;;8.90;99.90;;;;;;457027;259;28076;-79
2021/10/30 10:10:57;;;;;;;27.60;25.00;;;9.00;99.90;;;;;;456996;259;28194;-79
2021/10/30 10:12:58;;;;;;;26.93;24.53;;;9.00;99.90;;;;;;457077;256;28533;-81
2021/10/30 10:14:59;;;;;;;25.70;23.43;;;9.00;99.90;;;;;;457050;259;27607;-81
2021/10/30 10:17:00;;;;;;;22.90;20.70;;;9.10;99.90;;;;;;457038;259;28154;-81
2021/10/30 10:19:01;;;;;;;21.07;19.13;;;9.10;99.90;;;;;;457043;259;28465;-79
2021/10/30 10:21:03;;;;;;;18.63;16.93;;;9.20;99.90;;;;;;457051;256;28545;-81
2021/10/30 10:23:04;;;;;;;17.47;15.60;;;9.20;99.90;;;;;;457036;259;28001;-80
2021/10/30 10:25:05;;;;;;;16.77;15.27;;;9.20;99.90;;;;;;457025;259;28006;-78
2021/10/30 10:27:06;;;;;;;13.90;12.60;;;9.20;99.90;;;;;;457100;259;28069;-80
2021/10/30 10:29:08;;;;;;;12.60;11.40;;;9.20;99.90;;;;;;457100;259;28230;-81
2021/10/30 10:31:12;;;;;;;11.00;10.00;;;9.30;99.90;;;;;;457010;258;28149;-81
2021/10/30 10:33:13;;;;;;;10.83;9.53;;;9.20;99.90;;;;;;456892;259;28591;-81
2021/10/30 10:35:14;;;;;;;10.93;9.13;;;9.30;99.90;;;;;;456996;256;28332;-81
2021/10/30 10:37:17;;;;;;;9.50;8.53;;;9.30;99.90;;;;;;457041;259;28593;-78